sensor_id;sensor_type;location;lat;lon;timestamp;pressure;altitude;pressure_sealevel;temperature;humidity
65359;BME280;52491;45.900;6.346;2024-02-26T00:02:23;92042.72;;;20.62;30.26
65359;BME280;52491;45.900;6.346;2024-02-26T00:04:49;92038.00;;;20.59;30.27
65359;BME280;52491;45.900;6.346;2024-02-26T00:07:15;92045.38;;;20.62;30.39
65359;BME280;52491;45.900;6.346;2024-02-26T00:09:41;92043.78;;;20.61;30.37
65359;BME280;52491;45.900;6.346;2024-02-26T00:12:07;92049.34;;;20.59;30.50
65359;BME280;52491;45.900;6.346;2024-02-26T00:14:33;92054.66;;;20.59;30.53
65359;BME280;52491;45.900;6.346;2024-02-26T00:16:59;92045.63;;;20.60;30.23
65359;BME280;52491;45.900;6.346;2024-02-26T00:19:25;92058.34;;;20.58;30.30
65359;BME280;52491;45.900;6.346;2024-02-26T00:21:51;92043.81;;;20.55;30.22
65359;BME280;52491;45.900;6.346;2024-02-26T00:24:19;92046.19;;;20.57;30.30
65359;BME280;52491;45.900;6.346;2024-02-26T00:26:44;92050.72;;;20.56;30.20
65359;BME280;52491;45.900;6.346;2024-02-26T00:29:10;92045.69;;;20.55;30.24
65359;BME280;52491;45.900;6.346;2024-02-26T00:31:36;92055.72;;;20.58;30.40
65359;BME280;52491;45.900;6.346;2024-02-26T00:34:02;92055.72;;;20.58;30.15
65359;BME280;52491;45.900;6.346;2024-02-26T00:36:28;92054.94;;;20.58;30.26
65359;BME280;52491;45.900;6.346;2024-02-26T00:38:53;92050.50;;;20.53;30.27
65359;BME280;52491;45.900;6.346;2024-02-26T00:41:20;92054.41;;;20.55;30.20
65359;BME280;52491;45.900;6.346;2024-02-26T00:43:46;92047.28;;;20.56;30.55
65359;BME280;52491;45.900;6.346;2024-02-26T00:46:12;92054.41;;;20.55;30.33
65359;BME280;52491;45.900;6.346;2024-02-26T00:48:38;92058.13;;;20.54;30.20
65359;BME280;52491;45.900;6.346;2024-02-26T00:51:05;92059.72;;;20.55;30.27
65359;BME280;52491;45.900;6.346;2024-02-26T00:53:31;92066.88;;;20.55;30.10
65359;BME280;52491;45.900;6.346;2024-02-26T00:55:57;92071.38;;;20.54;30.38
65359;BME280;52491;45.900;6.346;2024-02-26T00:58:25;92075.59;;;20.55;30.16
65359;BME280;52491;45.900;6.346;2024-02-26T01:00:51;92074.03;;;20.54;30.44
65359;BME280;52491;45.900;6.346;2024-02-26T01:03:17;92064.75;;;20.52;30.33
65359;BME280;52491;45.900;6.346;2024-02-26T01:05:43;92049.66;;;20.52;30.15
65359;BME280;52491;45.900;6.346;2024-02-26T01:08:09;92051.28;;;20.53;30.20
65359;BME280;52491;45.900;6.346;2024-02-26T01:10:35;92058.94;;;20.50;30.30
65359;BME280;52491;45.900;6.346;2024-02-26T01:13:01;92051.28;;;20.53;30.16
65359;BME280;52491;45.900;6.346;2024-02-26T01:15:27;92048.09;;;20.51;30.27
65359;BME280;52491;45.900;6.346;2024-02-26T01:17:52;92033.00;;;20.52;30.13
65359;BME280;52491;45.900;6.346;2024-02-26T01:20:18;92040.41;;;20.50;30.14
65359;BME280;52491;45.900;6.346;2024-02-26T01:22:44;92043.88;;;20.50;30.34
65359;BME280;52491;45.900;6.346;2024-02-26T01:25:10;92039.06;;;20.52;30.49
65359;BME280;52491;45.900;6.346;2024-02-26T01:27:36;92029.56;;;20.51;30.33
65359;BME280;52491;45.900;6.346;2024-02-26T01:30:03;92033.00;;;20.52;30.10
65359;BME280;52491;45.900;6.346;2024-02-26T01:32:29;92033.28;;;20.50;30.09
65359;BME280;52491;45.900;6.346;2024-02-26T01:34:56;92029.56;;;20.51;30.13
65359;BME280;52491;45.900;6.346;2024-02-26T01:37:21;92032.00;;;20.48;30.25
65359;BME280;52491;45.900;6.346;2024-02-26T01:39:47;92038.06;;;20.48;30.30
65359;BME280;52491;45.900;6.346;2024-02-26T01:42:13;92037.50;;;20.51;30.05
65359;BME280;52491;45.900;6.346;2024-02-26T01:44:39;92030.13;;;20.48;30.30
65359;BME280;52491;45.900;6.346;2024-02-26T01:47:07;92028.47;;;20.52;30.23
65359;BME280;52491;45.900;6.346;2024-02-26T01:49:36;92025.34;;;20.50;30.12
65359;BME280;52491;45.900;6.346;2024-02-26T01:52:03;92021.63;;;20.51;30.20
65359;BME280;52491;45.900;6.346;2024-02-26T01:54:30;92022.97;;;20.49;30.27
65359;BME280;52491;45.900;6.346;2024-02-26T01:56:57;92025.06;;;20.52;30.25
65359;BME280;52491;45.900;6.346;2024-02-26T01:59:23;92017.41;;;20.50;30.21
65359;BME280;52491;45.900;6.346;2024-02-26T02:01:53;92020.84;;;20.51;30.23
65359;BME280;52491;45.900;6.346;2024-02-26T02:04:21;92013.47;;;20.48;30.24
65359;BME280;52491;45.900;6.346;2024-02-26T02:06:48;92026.91;;;20.51;30.26
65359;BME280;52491;45.900;6.346;2024-02-26T02:09:14;92021.41;;;20.48;30.23
65359;BME280;52491;45.900;6.346;2024-02-26T02:11:40;92023.47;;;20.51;30.33
65359;BME280;52491;45.900;6.346;2024-02-26T02:14:06;92024.53;;;20.50;29.99
65359;BME280;52491;45.900;6.346;2024-02-26T02:16:32;92034.63;;;20.48;30.28
65359;BME280;52491;45.900;6.346;2024-02-26T02:18:58;92037.50;;;20.51;30.32
65359;BME280;52491;45.900;6.346;2024-02-26T02:21:24;92022.41;;;20.52;30.25
65359;BME280;52491;45.900;6.346;2024-02-26T02:23:49;92031.13;;;20.52;30.35
65359;BME280;52491;45.900;6.346;2024-02-26T02:26:16;92031.97;;;20.53;30.22
65359;BME280;52491;45.900;6.346;2024-02-26T02:28:42;92026.69;;;20.53;30.26
65359;BME280;52491;45.900;6.346;2024-02-26T02:31:08;92032.47;;;20.50;30.11
65359;BME280;52491;45.900;6.346;2024-02-26T02:33:34;92033.78;;;20.52;30.20
65359;BME280;52491;45.900;6.346;2024-02-26T02:36:01;92033.78;;;20.52;30.13
65359;BME280;52491;45.900;6.346;2024-02-26T02:38:26;92024.53;;;20.50;30.38
65359;BME280;52491;45.900;6.346;2024-02-26T02:40:55;92011.31;;;20.50;30.23
65359;BME280;52491;45.900;6.346;2024-02-26T02:43:20;92020.84;;;20.51;30.34
65359;BME280;52491;45.900;6.346;2024-02-26T02:45:46;92012.91;;;20.51;30.47
65359;BME280;52491;45.900;6.346;2024-02-26T02:48:12;92014.22;;;20.53;30.21
65359;BME280;52491;45.900;6.346;2024-02-26T02:50:38;92020.28;;;20.54;30.40
65359;BME280;52491;45.900;6.346;2024-02-26T02:53:04;92012.59;;;20.52;30.28
65359;BME280;52491;45.900;6.346;2024-02-26T02:55:30;92009.72;;;20.54;30.33
65359;BME280;52491;45.900;6.346;2024-02-26T02:57:55;92010.25;;;20.51;30.19
65359;BME280;52491;45.900;6.346;2024-02-26T03:00:21;92013.13;;;20.54;30.19
65359;BME280;52491;45.900;6.346;2024-02-26T03:02:49;92019.22;;;20.55;30.39
65359;BME280;52491;45.900;6.346;2024-02-26T03:05:15;92016.31;;;20.51;30.10
65359;BME280;52491;45.900;6.346;2024-02-26T03:07:43;92006.53;;;20.52;30.25
65359;BME280;52491;45.900;6.346;2024-02-26T03:10:09;92018.94;;;20.56;30.43
65359;BME280;52491;45.900;6.346;2024-02-26T03:12:34;92010.22;;;20.56;30.36
65359;BME280;52491;45.900;6.346;2024-02-26T03:15:01;92005.50;;;20.53;30.42
65359;BME280;52491;45.900;6.346;2024-02-26T03:17:28;91995.69;;;20.53;30.03
65359;BME280;52491;45.900;6.346;2024-02-26T03:19:54;91993.25;;;20.57;30.07
65359;BME280;52491;45.900;6.346;2024-02-26T03:22:21;91996.16;;;20.55;30.20
65359;BME280;52491;45.900;6.346;2024-02-26T03:24:47;91999.34;;;20.58;30.42
65359;BME280;52491;45.900;6.346;2024-02-26T03:27:12;91987.44;;;20.55;30.51
65359;BME280;52491;45.900;6.346;2024-02-26T03:29:38;91995.13;;;20.56;30.44
65359;BME280;52491;45.900;6.346;2024-02-26T03:32:05;91977.66;;;20.55;30.32
65359;BME280;52491;45.900;6.346;2024-02-26T03:34:32;91980.28;;;20.55;30.27
65359;BME280;52491;45.900;6.346;2024-02-26T03:37:00;91970.22;;;20.58;30.21
65359;BME280;52491;45.900;6.346;2024-02-26T03:39:26;91967.88;;;20.56;30.21
65359;BME280;52491;45.900;6.346;2024-02-26T03:41:52;91960.41;;;20.58;30.49
65359;BME280;52491;45.900;6.346;2024-02-26T03:44:17;91967.78;;;20.61;30.45
65359;BME280;52491;45.900;6.346;2024-02-26T03:46:43;91967.78;;;20.61;30.48
65359;BME280;52491;45.900;6.346;2024-02-26T03:49:09;91968.78;;;20.65;30.25
65359;BME280;52491;45.900;6.346;2024-02-26T03:51:35;91976.44;;;20.67;30.39
65359;BME280;52491;45.900;6.346;2024-02-26T03:54:01;91977.53;;;20.66;30.28
65359;BME280;52491;45.900;6.346;2024-02-26T03:56:27;91978.81;;;20.68;30.32
65359;BME280;52491;45.900;6.346;2024-02-26T03:58:53;91981.97;;;20.70;30.27
65359;BME280;52491;45.900;6.346;2024-02-26T04:01:19;91982.75;;;20.71;30.38
65359;BME280;52491;45.900;6.346;2024-02-26T04:03:45;91981.66;;;20.72;30.28
65359;BME280;52491;45.900;6.346;2024-02-26T04:06:11;91976.69;;;20.70;30.26
65359;BME280;52491;45.900;6.346;2024-02-26T04:08:37;91978.53;;;20.70;30.27
65359;BME280;52491;45.900;6.346;2024-02-26T04:11:03;91971.59;;;20.74;30.32
65359;BME280;52491;45.900;6.346;2024-02-26T04:13:33;91977.66;;;20.74;30.12
65359;BME280;52491;45.900;6.346;2024-02-26T04:16:00;91965.00;;;20.71;30.15
65359;BME280;52491;45.900;6.346;2024-02-26T04:18:27;91967.06;;;20.74;30.25
65359;BME280;52491;45.900;6.346;2024-02-26T04:20:53;91967.06;;;20.74;30.13
65359;BME280;52491;45.900;6.346;2024-02-26T04:23:19;91965.78;;;20.72;30.17
65359;BME280;52491;45.900;6.346;2024-02-26T04:25:45;91963.72;;;20.69;30.02
65359;BME280;52491;45.900;6.346;2024-02-26T04:28:11;91966.03;;;20.75;30.32
65359;BME280;52491;45.900;6.346;2024-02-26T04:30:37;91966.50;;;20.77;30.15
65359;BME280;52491;45.900;6.346;2024-02-26T04:33:04;91967.59;;;20.76;30.17
65359;BME280;52491;45.900;6.346;2024-02-26T04:35:29;91961.78;;;20.74;30.10
65359;BME280;52491;45.900;6.346;2024-02-26T04:37:55;91950.41;;;20.74;30.16
65359;BME280;52491;45.900;6.346;2024-02-26T04:40:21;91954.34;;;20.76;30.30
65359;BME280;52491;45.900;6.346;2024-02-26T04:42:47;91954.56;;;20.80;30.19
65359;BME280;52491;45.900;6.346;2024-02-26T04:45:12;91946.91;;;20.78;30.16
65359;BME280;52491;45.900;6.346;2024-02-26T04:47:38;91939.25;;;20.77;30.08
65359;BME280;52491;45.900;6.346;2024-02-26T04:50:05;91937.88;;;20.79;30.28
65359;BME280;52491;45.900;6.346;2024-02-26T04:52:30;91936.78;;;20.81;30.01
65359;BME280;52491;45.900;6.346;2024-02-26T04:54:56;91941.31;;;20.80;30.19
65359;BME280;52491;45.900;6.346;2024-02-26T04:57:22;91936.78;;;20.81;30.16
65359;BME280;52491;45.900;6.346;2024-02-26T04:59:47;91913.53;;;20.77;30.30
65359;BME280;52491;45.900;6.346;2024-02-26T05:02:13;91919.34;;;20.79;30.01
65359;BME280;52491;45.900;6.346;2024-02-26T05:04:39;91919.06;;;20.81;29.92
65359;BME280;52491;45.900;6.346;2024-02-26T05:07:05;91916.69;;;20.79;30.13
65359;BME280;52491;45.900;6.346;2024-02-26T05:09:31;91922.97;;;20.84;30.01
65359;BME280;52491;45.900;6.346;2024-02-26T05:11:58;91920.63;;;20.82;29.92
65359;BME280;52491;45.900;6.346;2024-02-26T05:14:23;91915.59;;;20.81;30.07
65359;BME280;52491;45.900;6.346;2024-02-26T05:16:49;91918.25;;;20.81;30.14
65359;BME280;52491;45.900;6.346;2024-02-26T05:19:15;91912.97;;;20.81;29.94
65359;BME280;52491;45.900;6.346;2024-02-26T05:21:40;91909.59;;;20.75;30.07
65359;BME280;52491;45.900;6.346;2024-02-26T05:24:08;91932.50;;;20.85;30.00
65359;BME280;52491;45.900;6.346;2024-02-26T05:26:33;91921.41;;;20.83;29.95
65359;BME280;52491;45.900;6.346;2024-02-26T05:28:59;91927.50;;;20.83;29.91
65359;BME280;52491;45.900;6.346;2024-02-26T05:31:26;91903.38;;;20.85;30.11
65359;BME280;52491;45.900;6.346;2024-02-26T05:33:52;91895.44;;;20.85;30.01
65359;BME280;52491;45.900;6.346;2024-02-26T05:36:19;91914.19;;;20.88;29.99
65359;BME280;52491;45.900;6.346;2024-02-26T05:38:45;91913.09;;;20.89;30.09
65359;BME280;52491;45.900;6.346;2024-02-26T05:41:12;91917.91;;;20.87;29.82
65359;BME280;52491;45.900;6.346;2024-02-26T05:43:37;91917.34;;;20.90;29.89
65359;BME280;52491;45.900;6.346;2024-02-26T05:46:03;91909.66;;;20.89;29.75
65359;BME280;52491;45.900;6.346;2024-02-26T05:48:29;91913.91;;;20.90;29.85
65359;BME280;52491;45.900;6.346;2024-02-26T05:50:54;91912.03;;;20.90;30.07
65359;BME280;52491;45.900;6.346;2024-02-26T05:53:20;91914.19;;;20.88;29.99
65359;BME280;52491;45.900;6.346;2024-02-26T05:55:46;91924.19;;;20.91;29.93
65359;BME280;52491;45.900;6.346;2024-02-26T05:58:12;91924.97;;;20.92;29.88
65359;BME280;52491;45.900;6.346;2024-02-26T06:00:37;91916.56;;;20.90;29.76
65359;BME280;52491;45.900;6.346;2024-02-26T06:03:03;91917.03;;;20.92;29.83
65359;BME280;52491;45.900;6.346;2024-02-26T06:05:29;91917.34;;;20.90;29.93
65359;BME280;52491;45.900;6.346;2024-02-26T06:07:55;91921.28;;;20.93;29.78
65359;BME280;52491;45.900;6.346;2024-02-26T06:10:20;91932.66;;;20.93;29.94
65359;BME280;52491;45.900;6.346;2024-02-26T06:12:47;91920.75;;;20.91;29.75
65359;BME280;52491;45.900;6.346;2024-02-26T06:15:13;91923.41;;;20.91;29.95
65359;BME280;52491;45.900;6.346;2024-02-26T06:17:39;91931.28;;;20.96;29.76
65359;BME280;52491;45.900;6.346;2024-02-26T06:20:05;91947.19;;;20.96;29.74
65359;BME280;52491;45.900;6.346;2024-02-26T06:22:32;91941.88;;;20.96;29.72
65359;BME280;52491;45.900;6.346;2024-02-26T06:24:57;91937.66;;;20.95;29.65
65359;BME280;52491;45.900;6.346;2024-02-26T06:27:23;91924.44;;;20.95;29.89
65359;BME280;52491;45.900;6.346;2024-02-26T06:29:49;91937.09;;;20.98;29.77
65359;BME280;52491;45.900;6.346;2024-02-26T06:32:15;91945.81;;;20.98;29.48
65359;BME280;52491;45.900;6.346;2024-02-26T06:34:41;91949.53;;;20.97;29.70
65359;BME280;52491;45.900;6.346;2024-02-26T06:37:08;91949.25;;;20.99;29.59
65359;BME280;52491;45.900;6.346;2024-02-26T06:39:33;91938.66;;;20.99;29.86
65359;BME280;52491;45.900;6.346;2024-02-26T06:41:59;91923.03;;;20.97;29.73
65359;BME280;52491;45.900;6.346;2024-02-26T06:44:27;91924.91;;;20.97;29.88
65359;BME280;52491;45.900;6.346;2024-02-26T06:46:58;91941.56;;;20.97;29.82
65359;BME280;52491;45.900;6.346;2024-02-26T06:49:25;91945.81;;;20.98;29.81
65359;BME280;52491;45.900;6.346;2024-02-26T06:51:51;91933.34;;;20.99;29.73
65359;BME280;52491;45.900;6.346;2024-02-26T06:54:16;91938.94;;;20.97;29.77
65359;BME280;52491;45.900;6.346;2024-02-26T06:56:42;91952.41;;;21.01;30.05
65359;BME280;52491;45.900;6.346;2024-02-26T06:59:08;91968.56;;;20.99;29.87
65359;BME280;52491;45.900;6.346;2024-02-26T07:01:34;91980.47;;;21.02;29.54
65359;BME280;52491;45.900;6.346;2024-02-26T07:04:00;91969.34;;;21.00;29.67
65359;BME280;52491;45.900;6.346;2024-02-26T07:06:27;91955.53;;;21.03;29.68
65359;BME280;52491;45.900;6.346;2024-02-26T07:08:52;91968.00;;;21.02;29.83
65359;BME280;52491;45.900;6.346;2024-02-26T07:11:18;91966.72;;;21.00;29.86
65359;BME280;52491;45.900;6.346;2024-02-26T07:13:46;91968.31;;;21.01;29.60
65359;BME280;52491;45.900;6.346;2024-02-26T07:16:12;91965.66;;;21.01;29.76
65359;BME280;52491;45.900;6.346;2024-02-26T07:18:39;91975.94;;;21.02;29.70
65359;BME280;52491;45.900;6.346;2024-02-26T07:21:05;91979.09;;;21.05;29.56
65359;BME280;52491;45.900;6.346;2024-02-26T07:23:31;91981.75;;;21.05;29.71
65359;BME280;52491;45.900;6.346;2024-02-26T07:25:57;91975.16;;;21.02;29.63
65359;BME280;52491;45.900;6.346;2024-02-26T07:28:25;91974.09;;;21.03;29.80
65359;BME280;52491;45.900;6.346;2024-02-26T07:30:51;91974.38;;;21.01;29.64
65359;BME280;52491;45.900;6.346;2024-02-26T07:33:17;91987.84;;;21.05;29.56
65359;BME280;52491;45.900;6.346;2024-02-26T07:35:42;91985.97;;;21.06;29.79
65359;BME280;52491;45.900;6.346;2024-02-26T07:38:08;91971.44;;;21.03;29.68
65359;BME280;52491;45.900;6.346;2024-02-26T07:40:34;91983.03;;;21.07;29.74
65359;BME280;52491;45.900;6.346;2024-02-26T07:43:00;91968.50;;;21.05;29.74
65359;BME280;52491;45.900;6.346;2024-02-26T07:45:25;91958.69;;;21.05;29.70
65359;BME280;52491;45.900;6.346;2024-02-26T07:47:51;91954.47;;;21.04;29.51
65359;BME280;52491;45.900;6.346;2024-02-26T07:50:17;91952.34;;;21.06;29.66
65359;BME280;52491;45.900;6.346;2024-02-26T07:52:45;91947.19;;;20.96;29.95
65359;BME280;52491;45.900;6.346;2024-02-26T07:55:11;91965.06;;;21.04;29.73
65359;BME280;52491;45.900;6.346;2024-02-26T07:57:36;91948.88;;;21.06;29.88
65359;BME280;52491;45.900;6.346;2024-02-26T08:00:03;91961.84;;;21.07;29.78
65359;BME280;52491;45.900;6.346;2024-02-26T08:02:29;91964.50;;;21.07;29.78
65359;BME280;52491;45.900;6.346;2024-02-26T08:04:54;91959.19;;;21.07;29.75
65359;BME280;52491;45.900;6.346;2024-02-26T08:07:20;91968.78;;;21.03;29.87
65359;BME280;52491;45.900;6.346;2024-02-26T08:09:47;91978.53;;;21.08;30.07
65359;BME280;52491;45.900;6.346;2024-02-26T08:12:13;91971.16;;;21.05;29.77
65359;BME280;52491;45.900;6.346;2024-02-26T08:14:40;91960.28;;;21.06;29.96
65359;BME280;52491;45.900;6.346;2024-02-26T08:17:06;91948.09;;;21.05;29.90
65359;BME280;52491;45.900;6.346;2024-02-26T08:19:32;91933.50;;;21.08;30.01
65359;BME280;52491;45.900;6.346;2024-02-26T08:21:57;91941.16;;;21.09;29.86
65359;BME280;52491;45.900;6.346;2024-02-26T08:24:23;91951.75;;;21.09;29.95
65359;BME280;52491;45.900;6.346;2024-02-26T08:26:49;91949.09;;;21.09;30.00
65359;BME280;52491;45.900;6.346;2024-02-26T08:29:14;91945.66;;;21.09;29.90
65359;BME280;52491;45.900;6.346;2024-02-26T08:31:40;91948.09;;;21.05;30.05
65359;BME280;52491;45.900;6.346;2024-02-26T08:34:06;91958.13;;;21.08;29.90
65359;BME280;52491;45.900;6.346;2024-02-26T08:36:34;91955.78;;;21.07;30.34
65359;BME280;52491;45.900;6.346;2024-02-26T08:39:00;91952.09;;;21.02;29.99
65359;BME280;52491;45.900;6.346;2024-02-26T08:41:26;91955.25;;;21.05;29.94
65359;BME280;52491;45.900;6.346;2024-02-26T08:43:52;91953.97;;;21.02;30.10
65359;BME280;52491;45.900;6.346;2024-02-26T08:46:17;91964.50;;;21.07;30.25
65359;BME280;52491;45.900;6.346;2024-02-26T08:48:43;91960.28;;;21.06;30.20
65359;BME280;52491;45.900;6.346;2024-02-26T08:51:09;91969.78;;;21.07;30.17
65359;BME280;52491;45.900;6.346;2024-02-26T08:53:35;91958.19;;;21.03;30.04
65359;BME280;52491;45.900;6.346;2024-02-26T08:56:01;91970.88;;;21.06;30.27
65359;BME280;52491;45.900;6.346;2024-02-26T08:58:28;91968.50;;;21.05;30.02
65359;BME280;52491;45.900;6.346;2024-02-26T09:00:54;91956.34;;;21.04;30.27
65359;BME280;52491;45.900;6.346;2024-02-26T09:03:20;91976.47;;;21.05;30.20
65359;BME280;52491;45.900;6.346;2024-02-26T09:05:46;91971.94;;;21.05;30.26
65359;BME280;52491;45.900;6.346;2024-02-26T09:08:11;91969.28;;;21.05;30.16
65359;BME280;52491;45.900;6.346;2024-02-26T09:10:38;91967.72;;;21.04;30.10
65359;BME280;52491;45.900;6.346;2024-02-26T09:13:04;91973.31;;;21.02;30.14
65359;BME280;52491;45.900;6.346;2024-02-26T09:15:29;91987.84;;;21.05;30.14
65359;BME280;52491;45.900;6.346;2024-02-26T09:17:55;91962.22;;;21.00;30.01
65359;BME280;52491;45.900;6.346;2024-02-26T09:20:21;91970.38;;;21.04;29.93
65359;BME280;52491;45.900;6.346;2024-02-26T09:22:49;91970.94;;;21.01;29.86
65359;BME280;52491;45.900;6.346;2024-02-26T09:25:16;91974.91;;;21.04;30.10
65359;BME280;52491;45.900;6.346;2024-02-26T09:27:43;91976.25;;;21.01;30.25
65359;BME280;52491;45.900;6.346;2024-02-26T09:30:11;91991.56;;;21.04;30.03
65359;BME280;52491;45.900;6.346;2024-02-26T09:32:37;91991.84;;;21.02;29.94
65359;BME280;52491;45.900;6.346;2024-02-26T09:35:04;91991.38;;;21.00;30.06
65359;BME280;52491;45.900;6.346;2024-02-26T09:37:30;91991.84;;;21.02;30.08
65359;BME280;52491;45.900;6.346;2024-02-26T09:39:55;91998.22;;;21.01;29.97
65359;BME280;52491;45.900;6.346;2024-02-26T09:42:25;91993.44;;;21.04;30.21
65359;BME280;52491;45.900;6.346;2024-02-26T09:44:53;91986.53;;;21.02;30.08
65359;BME280;52491;45.900;6.346;2024-02-26T09:47:21;91982.59;;;21.00;29.99
65359;BME280;52491;45.900;6.346;2024-02-26T09:49:49;91990.56;;;21.00;29.89
65359;BME280;52491;45.900;6.346;2024-02-26T09:52:15;91985.06;;;20.96;29.87
65359;BME280;52491;45.900;6.346;2024-02-26T09:54:42;91995.84;;;21.00;29.87
65359;BME280;52491;45.900;6.346;2024-02-26T09:57:13;92003.22;;;21.03;30.03
65359;BME280;52491;45.900;6.346;2024-02-26T09:59:42;92007.25;;;21.00;30.21
65359;BME280;52491;45.900;6.346;2024-02-26T10:02:12;92005.41;;;21.01;29.99
65359;BME280;52491;45.900;6.346;2024-02-26T10:04:39;92003.00;;;20.99;30.19
65359;BME280;52491;45.900;6.346;2024-02-26T10:07:10;91997.91;;;21.03;29.99
65359;BME280;52491;45.900;6.346;2024-02-26T10:09:37;91989.25;;;20.97;29.77
65359;BME280;52491;45.900;6.346;2024-02-26T10:12:04;91984.97;;;21.01;29.87
65359;BME280;52491;45.900;6.346;2024-02-26T10:14:30;91984.97;;;21.01;30.12
65359;BME280;52491;45.900;6.346;2024-02-26T10:16:56;91984.78;;;20.98;30.12
65359;BME280;52491;45.900;6.346;2024-02-26T10:21:49;91978.66;;;20.97;30.18
65359;BME280;52491;45.900;6.346;2024-02-26T10:24:14;91974.44;;;20.96;29.88
65359;BME280;52491;45.900;6.346;2024-02-26T10:26:46;91989.97;;;21.03;29.87
65359;BME280;52491;45.900;6.346;2024-02-26T10:29:12;91991.63;;;20.99;29.94
65359;BME280;52491;45.900;6.346;2024-02-26T10:31:37;91994.78;;;21.01;29.81
65359;BME280;52491;45.900;6.346;2024-02-26T10:34:07;91987.44;;;20.98;29.99
65359;BME280;52491;45.900;6.346;2024-02-26T10:36:33;91986.84;;;21.01;29.90
65359;BME280;52491;45.900;6.346;2024-02-26T10:39:01;91986.34;;;20.99;29.82
65359;BME280;52491;45.900;6.346;2024-02-26T10:41:27;91993.19;;;21.00;29.87
65359;BME280;52491;45.900;6.346;2024-02-26T10:43:54;91997.44;;;21.01;30.05
65359;BME280;52491;45.900;6.346;2024-02-26T10:46:19;91995.84;;;21.00;29.82
65359;BME280;52491;45.900;6.346;2024-02-26T10:51:13;92000.09;;;21.01;29.95
65359;BME280;52491;45.900;6.346;2024-02-26T10:53:40;92001.16;;;21.00;30.11
65359;BME280;52491;45.900;6.346;2024-02-26T10:56:10;91994.78;;;21.01;30.06
65359;BME280;52491;45.900;6.346;2024-02-26T10:58:37;91991.13;;;20.97;29.91
65359;BME280;52491;45.900;6.346;2024-02-26T11:01:04;92003.78;;;21.00;29.92
65359;BME280;52491;45.900;6.346;2024-02-26T11:03:31;91991.91;;;20.97;29.94
65359;BME280;52491;45.900;6.346;2024-02-26T11:06:01;91986.63;;;20.97;29.79
65359;BME280;52491;45.900;6.346;2024-02-26T11:08:28;91995.38;;;20.98;29.95
65359;BME280;52491;45.900;6.346;2024-02-26T11:10:55;91986.63;;;20.97;29.95
65359;BME280;52491;45.900;6.346;2024-02-26T11:13:23;91981.03;;;20.99;29.98
65359;BME280;52491;45.900;6.346;2024-02-26T11:15:52;91987.69;;;20.96;30.11
65359;BME280;52491;45.900;6.346;2024-02-26T11:18:22;91984.25;;;20.96;29.83
65359;BME280;52491;45.900;6.346;2024-02-26T11:20:49;91984.78;;;20.98;29.78
65359;BME280;52491;45.900;6.346;2024-02-26T11:23:16;91969.16;;;20.96;29.71
65359;BME280;52491;45.900;6.346;2024-02-26T11:25:42;91975.75;;;20.99;29.83
65359;BME280;52491;45.900;6.346;2024-02-26T11:28:11;91974.66;;;21.00;29.78
65359;BME280;52491;45.900;6.346;2024-02-26T11:30:41;91964.63;;;20.97;30.00
65359;BME280;52491;45.900;6.346;2024-02-26T11:33:09;91963.06;;;20.96;29.96
65359;BME280;52491;45.900;6.346;2024-02-26T11:35:36;91965.41;;;20.97;29.73
65359;BME280;52491;45.900;6.346;2024-02-26T11:38:02;91962.50;;;20.99;29.96
65359;BME280;52491;45.900;6.346;2024-02-26T11:40:31;91948.47;;;20.98;29.87
65359;BME280;52491;45.900;6.346;2024-02-26T11:42:58;91942.16;;;20.94;30.01
65359;BME280;52491;45.900;6.346;2024-02-26T11:47:55;91950.03;;;20.99;30.15
65359;BME280;52491;45.900;6.346;2024-02-26T11:50:42;91945.53;;;21.00;30.24
65359;BME280;52491;45.900;6.346;2024-02-26T11:55:35;91937.38;;;20.96;30.57
65359;BME280;52491;45.900;6.346;2024-02-26T11:58:00;91939.75;;;20.98;30.64
65359;BME280;52491;45.900;6.346;2024-02-26T12:00:26;91942.09;;;20.99;30.85
65359;BME280;52491;45.900;6.346;2024-02-26T12:02:53;91933.63;;;20.97;31.09
65359;BME280;52491;45.900;6.346;2024-02-26T12:05:20;91922.25;;;20.97;31.10
65359;BME280;52491;45.900;6.346;2024-02-26T12:07:53;91926.50;;;20.98;31.35
65359;BME280;52491;45.900;6.346;2024-02-26T12:12:45;91924.63;;;20.98;31.34
65359;BME280;52491;45.900;6.346;2024-02-26T12:15:11;91921.69;;;21.00;31.51
65359;BME280;52491;45.900;6.346;2024-02-26T12:17:38;91923.53;;;20.99;31.47
65359;BME280;52491;45.900;6.346;2024-02-26T12:20:08;91927.78;;;21.00;31.54
65359;BME280;52491;45.900;6.346;2024-02-26T12:22:35;91925.41;;;20.99;31.47
65359;BME280;52491;45.900;6.346;2024-02-26T12:25:02;91926.50;;;20.98;31.64
65359;BME280;52491;45.900;6.346;2024-02-26T12:27:28;91925.41;;;20.99;31.55
65359;BME280;52491;45.900;6.346;2024-02-26T12:29:54;91915.91;;;20.98;31.62
65359;BME280;52491;45.900;6.346;2024-02-26T12:32:20;91925.13;;;21.00;31.33
65359;BME280;52491;45.900;6.346;2024-02-26T12:34:45;91917.19;;;21.00;31.40
65359;BME280;52491;45.900;6.346;2024-02-26T12:37:11;91922.75;;;20.99;31.68
65359;BME280;52491;45.900;6.346;2024-02-26T12:39:38;91918.56;;;20.98;31.61
65359;BME280;52491;45.900;6.346;2024-02-26T12:42:04;91921.69;;;21.00;31.50
65359;BME280;52491;45.900;6.346;2024-02-26T12:44:33;91911.38;;;20.98;31.34
65359;BME280;52491;45.900;6.346;2024-02-26T12:47:00;91915.31;;;21.01;31.27
65359;BME280;52491;45.900;6.346;2024-02-26T12:49:28;91907.97;;;20.98;31.24
65359;BME280;52491;45.900;6.346;2024-02-26T12:51:53;91909.53;;;20.99;31.45
65359;BME280;52491;45.900;6.346;2024-02-26T12:54:21;91907.97;;;20.98;31.24
65359;BME280;52491;45.900;6.346;2024-02-26T12:56:46;91907.38;;;21.01;31.38
65359;BME280;52491;45.900;6.346;2024-02-26T12:59:12;91899.44;;;21.01;31.16
65359;BME280;52491;45.900;6.346;2024-02-26T13:01:39;91897.84;;;21.00;31.20
65359;BME280;52491;45.900;6.346;2024-02-26T13:04:05;91897.84;;;21.00;31.31
65359;BME280;52491;45.900;6.346;2024-02-26T13:06:32;91910.50;;;21.03;31.24
65359;BME280;52491;45.900;6.346;2024-02-26T13:08:59;91905.50;;;21.01;31.23